Time;durP1;ratioP1;P1;durP2;ratioP2;P2;SDS_P1;SDS_P2;PMS_P1;PMS_P2;Temp;Humidity;BMP_temperature;BMP_pressure;BME280_temperature;BME280_humidity;BME280_pressure;Samples;Min_cycle;Max_cycle;Signal;HPM_P1;HPM_P2
2022/09/19 00:02:09;;;;;;;0.30;0.30;;;;;;;26.94;32.91;99359.63;1866475;75;28213;-71
2022/09/19 00:04:57;;;;;;;1.22;0.47;;;;;;;26.95;32.94;99361.30;1865847;75;28057;-71
2022/09/19 00:07:50;;;;;;;0.80;0.42;;;;;;;26.94;32.96;99361.84;1869460;75;28192;-70
2022/09/19 00:10:41;;;;;;;0.90;0.60;;;;;;;26.94;32.97;99364.60;1878744;74;28151;-71
2022/09/19 00:13:31;;;;;;;1.90;0.40;;;;;;;26.93;32.98;99363.50;1872195;74;28142;-70
2022/09/19 00:16:23;;;;;;;0.78;0.45;;;;;;;26.89;33.06;99359.05;1865851;75;28136;-71
2022/09/19 00:19:15;;;;;;;0.70;0.50;;;;;;;26.89;33.04;99367.86;1867211;75;28056;-71
2022/09/19 00:22:03;;;;;;;0.40;0.40;;;;;;;26.90;33.09;99362.64;1900702;75;28152;-70
2022/09/19 00:24:51;;;;;;;0.37;0.37;;;;;;;26.86;33.14;99360.14;1868198;75;28193;-70
2022/09/19 00:27:44;;;;;;;0.40;0.40;;;;;;;26.85;33.17;99359.31;1882481;75;28154;-70
2022/09/19 00:30:33;;;;;;;0.30;0.30;;;;;;;26.84;33.18;99356.25;1877618;75;28311;-70
2022/09/19 00:33:23;;;;;;;0.75;0.40;;;;;;;26.84;33.17;99361.77;1900829;75;28178;-72
2022/09/19 00:36:12;;;;;;;0.30;0.30;;;;;;;26.87;33.15;99358.48;1875521;75;28127;-70
2022/09/19 00:39:01;;;;;;;0.75;0.60;;;;;;;26.86;33.14;99360.98;1863959;75;28126;-70
2022/09/19 00:41:50;;;;;;;0.47;0.47;;;;;;;26.88;33.16;99360.70;1867530;75;28108;-70
2022/09/19 00:44:41;;;;;;;0.42;0.42;;;;;;;26.88;33.19;99358.78;1868624;75;32088;-70
2022/09/19 00:47:34;;;;;;;0.40;0.30;;;;;;;26.89;33.14;99356.83;1871045;75;28151;-70
2022/09/19 00:50:28;;;;;;;0.65;0.50;;;;;;;26.86;33.21;99353.25;1892488;75;28223;-70
2022/09/19 00:53:20;;;;;;;0.90;0.30;;;;;;;26.87;33.24;99354.90;1870005;75;28569;-70
2022/09/19 00:56:09;;;;;;;0.60;0.60;;;;;;;26.85;33.26;99348.28;1872562;75;30075;-70
2022/09/19 00:59:01;;;;;;;1.90;0.40;;;;;;;26.83;33.34;99346.34;1880834;75;28160;-70
2022/09/19 01:01:53;;;;;;;0.50;0.50;;;;;;;26.85;33.28;99344.69;1898759;75;35353;-70
2022/09/19 01:04:43;;;;;;;0.40;0.40;;;;;;;26.84;33.28;99347.18;1841588;76;27993;-70
2022/09/19 01:07:46;;;;;;;0.42;0.42;;;;;;;26.83;33.28;99342.75;1871143;75;28194;-71
2022/09/19 01:10:55;;;;;;;1.10;0.45;;;;;;;26.85;33.30;99343.31;1863377;75;28071;-70
2022/09/19 01:14:08;;;;;;;0.50;0.50;;;;;;;26.80;33.36;99344.11;1877334;75;28130;-69
2022/09/19 01:17:04;;;;;;;0.23;0.23;;;;;;;26.76;33.42;99336.10;1891339;74;28107;-70
2022/09/19 01:20:31;;;;;;;1.30;0.60;;;;;;;26.70;33.48;99332.98;1871895;75;28076;-69
2022/09/19 01:23:43;;;;;;;0.43;0.40;;;;;;;26.70;33.56;99332.98;1840004;76;28249;-70
2022/09/19 01:27:01;;;;;;;0.40;0.40;;;;;;;26.68;33.57;99329.13;1821352;76;28348;-71
2022/09/19 01:29:53;;;;;;;0.50;0.50;;;;;;;26.67;33.60;99334.37;1874591;75;28093;-70
2022/09/19 01:32:54;;;;;;;0.40;0.40;;;;;;;26.66;33.62;99331.31;1901540;75;38484;-70
2022/09/19 01:35:45;;;;;;;1.50;0.40;;;;;;;26.68;33.61;99325.53;1882819;75;28129;-71
2022/09/19 01:38:39;;;;;;;0.37;0.37;;;;;;;26.70;33.58;99325.55;1867611;74;28041;-70
2022/09/19 01:41:26;;;;;;;1.10;0.30;;;;;;;26.69;33.59;99336.31;1886942;75;28145;-70
2022/09/19 01:44:19;;;;;;;0.90;0.30;;;;;;;26.72;33.56;99337.70;1883927;74;28084;-70
2022/09/19 01:47:17;;;;;;;0.40;0.40;;;;;;;26.72;33.54;99337.13;1898907;74;28562;-70
2022/09/19 01:50:31;;;;;;;0.37;0.37;;;;;;;26.72;33.56;99334.95;1890954;75;28174;-71
2022/09/19 01:53:45;;;;;;;0.40;0.40;;;;;;;26.70;33.57;99331.60;1862531;75;28216;-70
2022/09/19 01:56:52;;;;;;;0.35;0.35;;;;;;;26.68;33.60;99333.80;1794220;75;38462;-70
2022/09/19 01:59:47;;;;;;;0.40;0.40;;;;;;;26.64;33.64;99331.30;1879518;75;28126;-70
2022/09/19 02:02:47;;;;;;;0.35;0.35;;;;;;;26.64;33.70;99335.43;1876390;75;28187;-70
2022/09/19 02:06:01;;;;;;;0.40;0.40;;;;;;;26.61;33.73;99333.20;1854385;77;28085;-70
2022/09/19 02:09:00;;;;;;;0.50;0.47;;;;;;;26.63;33.71;99335.13;1873630;75;28265;-71
2022/09/19 02:12:06;;;;;;;0.90;0.40;;;;;;;26.61;33.71;99333.20;1901516;75;28177;-70
2022/09/19 02:14:59;;;;;;;0.40;0.40;;;;;;;26.56;33.82;99338.66;1884602;74;28059;-70
2022/09/19 02:17:55;;;;;;;0.60;0.60;;;;;;;26.59;33.83;99336.77;1883830;74;28075;-70
2022/09/19 02:20:45;;;;;;;0.53;0.37;;;;;;;26.61;33.77;99335.41;1878227;74;28132;-70
2022/09/19 02:23:37;;;;;;;0.40;0.40;;;;;;;26.59;33.73;99329.34;1877341;75;28232;-70
2022/09/19 02:26:27;;;;;;;1.35;0.53;;;;;;;26.70;33.65;99340.70;1881286;75;28103;-70
2022/09/19 02:29:23;;;;;;;0.30;0.30;;;;;;;26.72;33.60;99339.08;1892279;75;28143;-71
2022/09/19 02:32:09;;;;;;;0.42;0.35;;;;;;;26.72;33.57;99342.64;1875051;75;28136;-71
2022/09/19 02:34:59;;;;;;;1.60;0.40;;;;;;;26.72;33.58;99344.59;1889082;74;28130;-70
2022/09/19 02:37:57;;;;;;;0.50;0.50;;;;;;;26.73;33.58;99334.67;1873290;75;28655;-70
2022/09/19 02:40:55;;;;;;;0.37;0.37;;;;;;;26.76;33.53;99342.99;1856167;75;28138;-70
2022/09/19 02:44:09;;;;;;;0.60;0.60;;;;;;;26.77;33.55;99339.70;1872957;75;28074;-71
2022/09/19 02:47:03;;;;;;;0.42;0.42;;;;;;;26.74;33.55;99343.23;1803806;76;28351;-71
2022/09/19 02:50:03;;;;;;;0.40;0.40;;;;;;;26.72;33.57;99341.27;1873309;75;28201;-71
2022/09/19 02:52:54;;;;;;;0.33;0.33;;;;;;;26.72;33.55;99337.70;1874035;75;28174;-72
2022/09/19 02:55:49;;;;;;;0.40;0.40;;;;;;;26.73;33.55;99335.22;1901503;75;28094;-70
2022/09/19 02:58:41;;;;;;;0.43;0.33;;;;;;;26.72;33.57;99337.70;1876326;75;28182;-70
2022/09/19 03:01:34;;;;;;;0.30;0.30;;;;;;;26.73;33.55;99333.30;1884338;74;28107;-70
2022/09/19 03:04:29;;;;;;;0.50;0.50;;;;;;;26.76;33.51;99329.75;1872567;75;28630;-70
2022/09/19 03:07:27;;;;;;;1.20;0.50;;;;;;;26.75;33.53;99334.43;1895212;75;28187;-71
2022/09/19 03:10:20;;;;;;;0.40;0.40;;;;;;;26.73;33.52;99322.27;1890298;75;28189;-70
2022/09/19 03:13:18;;;;;;;0.55;0.42;;;;;;;26.76;33.50;99331.97;1876769;76;38402;-71
2022/09/19 03:16:09;;;;;;;0.40;0.40;;;;;;;26.75;33.51;99330.30;1864749;76;28349;-70
2022/09/19 03:18:59;;;;;;;0.40;0.40;;;;;;;26.74;33.48;99323.11;1868670;76;28221;-70
2022/09/19 03:21:51;;;;;;;0.40;0.40;;;;;;;26.75;33.46;99331.67;1874669;76;28258;-70
2022/09/19 03:24:40;;;;;;;0.40;0.40;;;;;;;26.73;33.51;99326.41;1874624;76;28141;-70
2022/09/19 03:27:29;;;;;;;0.37;0.37;;;;;;;26.73;33.53;99320.89;1849979;76;28288;-70
2022/09/19 03:30:18;;;;;;;0.60;0.40;;;;;;;26.76;33.51;99322.32;1865507;76;28138;-71
2022/09/19 03:33:08;;;;;;;0.50;0.50;;;;;;;26.76;33.47;99322.86;1848424;76;28130;-70
2022/09/19 03:35:59;;;;;;;0.40;0.40;;;;;;;26.79;33.47;99330.61;1830837;77;28382;-71
2022/09/19 03:38:47;;;;;;;0.35;0.35;;;;;;;26.76;33.49;99323.70;1850632;76;28288;-70
2022/09/19 03:41:38;;;;;;;0.40;0.40;;;;;;;26.75;33.49;99322.03;1846906;76;28213;-70
2022/09/19 03:44:28;;;;;;;0.45;0.45;;;;;;;26.74;33.52;99321.73;1860471;76;28270;-70
2022/09/19 03:47:21;;;;;;;0.40;0.40;;;;;;;26.76;33.49;99316.81;1863102;76;28122;-70
2022/09/19 03:50:08;;;;;;;0.37;0.30;;;;;;;26.73;33.46;99320.05;1860317;76;28208;-70
2022/09/19 03:52:59;;;;;;;0.50;0.50;;;;;;;26.78;33.46;99315.16;1852441;76;28264;-70
2022/09/19 03:55:50;;;;;;;0.30;0.30;;;;;;;26.79;33.43;99316.83;1865626;76;28177;-70
2022/09/19 03:58:40;;;;;;;1.10;0.40;;;;;;;26.74;33.48;99311.55;1865908;76;27747;-70
2022/09/19 04:01:29;;;;;;;0.60;0.53;;;;;;;26.77;33.45;99312.94;1866152;76;28260;-70
2022/09/19 04:04:22;;;;;;;0.47;0.47;;;;;;;26.75;33.45;99312.38;1865625;76;28084;-70
2022/09/19 04:07:15;;;;;;;0.72;0.40;;;;;;;26.76;33.45;99317.35;1851978;76;28690;-69
2022/09/19 04:10:03;;;;;;;0.40;0.40;;;;;;;26.78;33.56;99323.42;1861851;76;28064;-71
2022/09/19 04:12:52;;;;;;;2.20;0.60;;;;;;;26.77;33.66;99324.53;1862848;75;28289;-72
2022/09/19 04:15:41;;;;;;;0.57;0.57;;;;;;;26.75;33.72;99323.41;1886430;75;28235;-75
2022/09/19 04:18:34;;;;;;;0.42;0.42;;;;;;;26.76;33.80;99323.70;1890760;75;28160;-75
2022/09/19 04:21:23;;;;;;;0.50;0.37;;;;;;;26.82;33.87;99332.27;1861616;75;28584;-73
2022/09/19 04:24:14;;;;;;;0.50;0.50;;;;;;;26.85;33.95;99329.53;1895776;75;28165;-76
2022/09/19 04:27:06;;;;;;;0.50;0.50;;;;;;;26.86;33.94;99332.05;1821430;76;28333;-72
2022/09/19 04:29:57;;;;;;;0.47;0.47;;;;;;;26.86;33.98;99334.80;1887420;75;28123;-75
2022/09/19 04:32:48;;;;;;;0.42;0.42;;;;;;;26.88;34.01;99331.22;1865621;75;28197;-72
2022/09/19 04:35:37;;;;;;;0.30;0.30;;;;;;;26.89;34.03;99335.62;1863167;75;28280;-71
2022/09/19 04:38:33;;;;;;;0.50;0.50;;;;;;;26.91;34.05;99335.38;1854669;75;28246;-71
2022/09/19 04:41:18;;;;;;;0.95;0.50;;;;;;;26.91;34.11;99336.18;1860999;75;28279;-73
2022/09/19 04:44:10;;;;;;;0.50;0.50;;;;;;;26.94;34.22;99343.92;1859181;75;28211;-73
2022/09/19 04:47:11;;;;;;;0.87;0.50;;;;;;;26.98;34.23;99344.23;1852695;75;28132;-73
2022/09/19 04:50:03;;;;;;;0.35;0.35;;;;;;;26.95;34.35;99345.59;1868491;76;28485;-72
2022/09/19 04:52:56;;;;;;;0.50;0.50;;;;;;;26.96;34.36;99350.00;1858820;76;28272;-71
2022/09/19 04:55:44;;;;;;;0.60;0.53;;;;;;;26.99;34.33;99354.98;1867980;75;30136;-73
2022/09/19 04:58:33;;;;;;;0.40;0.30;;;;;;;27.05;34.28;99348.96;1889938;75;28349;-72
2022/09/19 05:01:24;;;;;;;0.68;0.60;;;;;;;27.08;34.21;99356.68;1858790;75;28082;-71
2022/09/19 05:04:16;;;;;;;0.37;0.37;;;;;;;27.08;34.01;99345.65;1877706;75;31129;-72
2022/09/19 05:07:03;;;;;;;0.50;0.50;;;;;;;27.09;33.85;99352.30;1860321;75;28399;-72
2022/09/19 05:09:53;;;;;;;0.75;0.70;;;;;;;27.08;33.69;99352.00;1873517;75;28368;-72
2022/09/19 05:12:43;;;;;;;0.50;0.50;;;;;;;27.04;32.94;99352.27;1868981;75;28144;-73
2022/09/19 05:15:32;;;;;;;0.60;0.60;;;;;;;27.10;32.36;99347.05;1867711;74;28256;-77
2022/09/19 05:18:23;;;;;;;1.00;0.60;;;;;;;27.07;32.54;99346.19;1873604;74;28027;-73
2022/09/19 05:21:16;;;;;;;0.50;0.50;;;;;;;27.10;32.67;99348.97;1876091;74;28165;-74
2022/09/19 05:24:05;;;;;;;0.67;0.67;;;;;;;27.15;32.74;99353.13;1876283;75;27996;-74
2022/09/19 05:26:56;;;;;;;0.70;0.70;;;;;;;27.16;32.77;99347.38;1815158;77;28333;-74
2022/09/19 05:29:44;;;;;;;0.55;0.55;;;;;;;27.19;32.89;99346.81;1863776;74;28112;-73
2022/09/19 05:32:34;;;;;;;0.50;0.50;;;;;;;27.21;33.25;99348.75;1865104;75;28068;-73
2022/09/19 05:35:27;;;;;;;0.75;0.50;;;;;;;27.23;33.43;99347.95;1876966;75;28115;-73
2022/09/19 05:38:24;;;;;;;1.60;0.60;;;;;;;27.20;33.42;99352.62;1836820;75;28130;-74
2022/09/19 05:41:16;;;;;;;0.68;0.47;;;;;;;27.24;33.06;99357.88;1871897;75;28163;-72
2022/09/19 05:44:22;;;;;;;1.10;0.40;;;;;;;27.23;32.96;99352.09;1879047;75;28107;-73
2022/09/19 05:47:18;;;;;;;0.40;0.40;;;;;;;27.22;32.99;99358.70;1873804;75;28251;-72
2022/09/19 05:50:10;;;;;;;0.50;0.50;;;;;;;27.26;32.89;99355.67;1871763;75;28162;-74
2022/09/19 05:56:08;;;;;;;0.80;0.80;;;;;;;27.18;32.98;99351.23;1867370;75;28204;-77
2022/09/19 05:59:02;;;;;;;0.90;0.70;;;;;;;27.24;33.27;99359.25;1861133;75;28113;-76
2022/09/19 06:01:52;;;;;;;0.70;0.70;;;;;;;27.25;33.42;99358.70;1867022;75;28121;-76
2022/09/19 06:04:58;;;;;;;0.60;0.50;;;;;;;27.29;33.71;99359.28;1861701;74;28125;-76
2022/09/19 06:07:49;;;;;;;0.90;0.70;;;;;;;27.30;34.05;99361.50;1877456;75;28133;-76
2022/09/19 06:10:43;;;;;;;0.40;0.40;;;;;;;27.39;34.53;99369.02;1874801;75;28177;-75
2022/09/19 06:16:41;;;;;;;0.60;0.60;;;;;;;27.43;34.67;99365.70;1886884;74;28153;-79
2022/09/19 06:19:40;;;;;;;0.62;0.62;;;;;;;27.40;34.91;99367.06;1864373;74;28165;-74
2022/09/19 06:22:49;;;;;;;0.50;0.50;;;;;;;27.43;35.13;99367.08;1869748;74;28294;-73
2022/09/19 06:25:40;;;;;;;0.55;0.55;;;;;;;27.38;34.26;99362.38;1881409;75;28206;-73
2022/09/19 06:28:30;;;;;;;0.60;0.60;;;;;;;27.39;33.89;99362.67;1886150;74;28198;-73
2022/09/19 06:31:20;;;;;;;0.68;0.57;;;;;;;27.38;33.65;99364.59;1874516;75;28126;-73
2022/09/19 06:34:17;;;;;;;0.80;0.45;;;;;;;27.38;33.70;99352.72;1882236;74;28186;-74
2022/09/19 06:37:05;;;;;;;0.50;0.50;;;;;;;27.36;33.54;99358.48;1874783;74;28207;-73
2022/09/19 06:39:54;;;;;;;0.68;0.68;;;;;;;27.35;33.35;99357.39;1868176;75;28081;-72
2022/09/19 06:42:50;;;;;;;1.35;0.62;;;;;;;27.35;33.31;99355.44;1888734;74;29799;-74
2022/09/19 06:45:58;;;;;;;0.47;0.47;;;;;;;27.30;33.32;99352.68;1879251;75;28154;-73
2022/09/19 06:49:01;;;;;;;0.50;0.50;;;;;;;27.28;33.30;99350.71;1864882;74;28226;-74
2022/09/19 10:55:22;;;;;;;1.02;0.80;;;;;;;22.14;45.38;99255.77;1926473;72;28121;-77
2022/09/19 10:58:22;;;;;;;1.15;1.05;;;;;;;22.56;45.38;99246.87;1903766;73;28237;-77
2022/09/19 11:01:23;;;;;;;1.12;1.10;;;;;;;23.45;44.21;99248.20;1900597;73;28183;-76
2022/09/19 11:04:22;;;;;;;3.15;0.90;;;;;;;24.18;42.92;99261.29;1877474;73;28173;-75
2022/09/19 11:07:21;;;;;;;0.90;0.90;;;;;;;24.77;41.84;99267.13;1903038;73;28149;-76
2022/09/19 11:10:34;;;;;;;1.30;0.87;;;;;;;25.23;41.02;99252.32;1900713;73;28086;-73
2022/09/19 11:13:24;;;;;;;1.62;0.90;;;;;;;25.55;40.50;99248.31;1899985;73;28124;-74
2022/09/19 11:16:29;;;;;;;1.00;0.70;;;;;;;25.84;40.08;99246.09;1905558;73;28225;-76
2022/09/19 13:25:07;;;;;;;1.47;0.72;;;;;;;22.78;43.49;99168.51;1902038;73;28167;-74
2022/09/19 13:28:21;;;;;;;0.75;0.65;;;;;;;23.62;42.18;99169.56;1901197;73;28161;-73
2022/09/19 13:31:17;;;;;;;0.80;0.80;;;;;;;24.26;41.09;99165.34;1901588;73;28233;-74
2022/09/19 13:34:06;;;;;;;0.60;0.60;;;;;;;24.81;40.01;99163.91;1904526;73;28133;-73
